createdAt,value
2023-09-27T00:02:02.188Z,17.58
2023-09-27T00:04:29.472Z,18.45
2023-09-27T00:06:56.647Z,22.17
2023-09-27T00:09:23.711Z,20.77
2023-09-27T00:11:50.610Z,15.55
2023-09-27T00:14:17.587Z,16.73
2023-09-27T00:16:44.533Z,23.52
2023-09-27T00:19:12.329Z,23.10
2023-09-27T00:21:39.173Z,19.65
2023-09-27T00:24:06.373Z,15.70
2023-09-27T00:26:33.248Z,18.00
2023-09-27T00:29:00.267Z,20.73
2023-09-27T00:31:27.176Z,22.80
2023-09-27T00:33:54.369Z,18.70
2023-09-27T00:36:21.271Z,21.27
2023-09-27T00:38:48.311Z,19.10
2023-09-27T00:41:15.672Z,19.83
2023-09-27T00:43:42.698Z,24.35
2023-09-27T00:46:17.607Z,23.80
2023-09-27T00:48:45.219Z,24.08
2023-09-27T00:51:12.796Z,21.85
2023-09-27T00:53:42.454Z,23.30
2023-09-27T00:56:11.102Z,21.13
2023-09-27T00:58:39.603Z,23.20
2023-09-27T01:01:07.474Z,19.05
2023-09-27T01:03:35.051Z,23.10
2023-09-27T01:06:02.189Z,19.65
2023-09-27T01:08:30.925Z,18.15
2023-09-27T01:10:57.983Z,25.00
2023-09-27T01:13:24.945Z,16.90
2023-09-27T01:15:52.462Z,18.75
2023-09-27T01:18:19.546Z,19.77
2023-09-27T01:20:46.945Z,24.95
2023-09-27T01:23:14.418Z,21.13
2023-09-27T01:25:41.405Z,18.88
2023-09-27T01:28:10.885Z,19.27
2023-09-27T01:30:39.059Z,21.33
2023-09-27T01:33:08.281Z,19.92
2023-09-27T01:35:43.512Z,21.52
2023-09-27T01:40:41.763Z,22.23
2023-09-27T01:43:09.528Z,20.25
2023-09-27T01:45:37.179Z,19.13
2023-09-27T01:48:05.354Z,20.75
2023-09-27T01:50:35.257Z,21.83
2023-09-27T01:53:02.447Z,20.90
2023-09-27T01:55:29.365Z,19.73
2023-09-27T01:57:57.058Z,23.98
2023-09-27T02:00:24.427Z,23.70
2023-09-27T02:02:55.168Z,24.17
2023-09-27T02:05:22.887Z,23.05
2023-09-27T02:07:49.817Z,20.15
2023-09-27T02:10:17.214Z,26.17
2023-09-27T02:12:44.696Z,25.13
2023-09-27T02:15:15.262Z,27.60
2023-09-27T02:17:43.935Z,22.25
2023-09-27T02:20:14.563Z,24.40
2023-09-27T02:22:42.605Z,23.92
2023-09-27T02:25:14.436Z,25.83
2023-09-27T02:27:43.775Z,20.95
2023-09-27T02:30:13.976Z,25.38
2023-09-27T02:32:43.980Z,28.80
2023-09-27T02:35:12.298Z,27.83
2023-09-27T02:37:45.182Z,28.15
2023-09-27T02:40:13.200Z,24.45
2023-09-27T02:42:42.549Z,23.65
2023-09-27T02:45:10.858Z,23.00
2023-09-27T02:47:39.638Z,29.02
2023-09-27T02:50:11.174Z,30.10
2023-09-27T02:52:39.587Z,33.03
2023-09-27T02:55:10.119Z,31.70
2023-09-27T02:57:39.387Z,29.45
2023-09-27T03:00:07.835Z,26.00
2023-09-27T03:02:36.250Z,33.17
2023-09-27T03:05:06.093Z,24.30
2023-09-27T03:07:35.107Z,27.60
2023-09-27T03:10:11.888Z,25.65
2023-09-27T03:12:40.569Z,31.08
2023-09-27T03:15:12.637Z,28.30
2023-09-27T03:17:42.502Z,29.55
2023-09-27T03:20:11.471Z,25.40
2023-09-27T03:22:39.368Z,26.88
2023-09-27T03:25:08.726Z,29.98
2023-09-27T03:27:35.823Z,28.85
2023-09-27T03:30:04.782Z,27.17
2023-09-27T03:32:33.694Z,30.23
2023-09-27T03:35:00.944Z,26.42
2023-09-27T03:37:28.933Z,29.00
2023-09-27T03:39:56.986Z,31.67
2023-09-27T03:42:24.566Z,29.50
2023-09-27T03:44:51.665Z,33.30
2023-09-27T03:47:18.892Z,27.95
2023-09-27T03:49:45.846Z,26.77
2023-09-27T03:52:12.986Z,35.78
2023-09-27T03:54:40.671Z,29.83
2023-09-27T03:57:07.657Z,29.92
2023-09-27T03:59:34.631Z,36.13
2023-09-27T04:02:02.303Z,31.73
2023-09-27T04:04:29.300Z,38.60
2023-09-27T04:06:57.283Z,30.52
2023-09-27T04:09:24.360Z,36.38
2023-09-27T04:11:51.324Z,33.20
2023-09-27T04:14:18.372Z,34.25
2023-09-27T04:16:45.393Z,40.05
2023-09-27T04:19:12.202Z,31.20
2023-09-27T04:21:39.122Z,32.40
2023-09-27T04:24:06.377Z,34.00
2023-09-27T04:26:33.749Z,34.00
2023-09-27T04:29:01.537Z,38.50
2023-09-27T04:31:28.998Z,31.73
2023-09-27T04:33:56.035Z,32.92
2023-09-27T04:36:23.018Z,29.75
2023-09-27T04:38:50.435Z,35.60
2023-09-27T04:41:19.105Z,37.10
2023-09-27T04:43:46.319Z,33.50
2023-09-27T04:46:20.152Z,39.35
2023-09-27T04:48:47.204Z,33.38
2023-09-27T04:51:14.129Z,33.15
2023-09-27T04:53:41.290Z,37.17
2023-09-27T04:56:09.337Z,33.08
2023-09-27T04:58:38.582Z,31.85
2023-09-27T05:01:07.407Z,34.13
2023-09-27T05:03:34.789Z,33.05
2023-09-27T05:06:01.910Z,34.72
2023-09-27T05:08:28.830Z,32.83
2023-09-27T05:10:57.401Z,33.67
2023-09-27T05:13:24.521Z,45.03
2023-09-27T05:15:54.642Z,43.30
2023-09-27T05:18:24.064Z,38.70
2023-09-27T05:20:52.702Z,37.03
2023-09-27T05:23:19.941Z,43.05
2023-09-27T05:25:47.660Z,42.38
2023-09-27T05:28:14.609Z,53.03
2023-09-27T05:30:42.840Z,41.83
2023-09-27T05:33:10.017Z,46.67
2023-09-27T05:35:36.918Z,46.03
2023-09-27T05:38:04.569Z,47.90
2023-09-27T05:40:32.546Z,52.83
2023-09-27T05:43:00.688Z,47.53
2023-09-27T05:45:29.351Z,50.22
2023-09-27T05:47:56.366Z,54.20
2023-09-27T05:50:24.153Z,42.90
2023-09-27T05:52:51.201Z,49.42
2023-09-27T05:55:18.760Z,45.17
2023-09-27T05:57:45.866Z,43.72
2023-09-27T06:00:27.903Z,45.25
2023-09-27T06:02:55.370Z,45.55
2023-09-27T06:05:22.721Z,44.83
2023-09-27T06:07:50.269Z,39.65
2023-09-27T06:10:17.819Z,42.22
2023-09-27T06:12:44.855Z,49.38
2023-09-27T06:15:13.944Z,45.33
2023-09-27T06:17:41.559Z,45.08
2023-09-27T06:20:12.839Z,42.17
2023-09-27T06:22:41.336Z,39.33
2023-09-27T06:25:08.605Z,47.50
2023-09-27T06:27:36.085Z,43.25
2023-09-27T06:30:04.814Z,43.63
2023-09-27T06:32:32.154Z,46.83
2023-09-27T06:34:59.466Z,37.42
2023-09-27T06:37:26.613Z,43.75
2023-09-27T06:39:53.499Z,43.38
2023-09-27T06:42:20.574Z,44.50
2023-09-27T06:44:47.642Z,43.25
2023-09-27T06:47:14.672Z,36.72
2023-09-27T06:49:41.641Z,38.70
2023-09-27T06:52:09.856Z,39.95
2023-09-27T06:54:36.787Z,35.38
2023-09-27T06:57:03.750Z,36.63
2023-09-27T06:59:32.587Z,44.22
2023-09-27T07:01:59.572Z,39.97
2023-09-27T07:04:26.499Z,42.22
2023-09-27T07:06:54.011Z,41.80
2023-09-27T07:09:22.050Z,42.60
2023-09-27T07:11:49.680Z,38.63
2023-09-27T07:14:21.268Z,34.30
2023-09-27T07:17:01.018Z,40.53
2023-09-27T07:19:32.413Z,35.67
2023-09-27T07:22:00.641Z,45.38
2023-09-27T07:24:31.173Z,43.63
2023-09-27T07:26:58.218Z,38.17
2023-09-27T07:29:25.116Z,36.72
2023-09-27T07:31:52.073Z,39.35
2023-09-27T07:34:18.959Z,31.50
2023-09-27T07:36:45.935Z,46.17
2023-09-27T07:39:14.284Z,42.70
2023-09-27T07:41:43.262Z,43.85
2023-09-27T07:44:11.354Z,36.38
2023-09-27T07:46:39.461Z,41.10
2023-09-27T07:49:06.635Z,36.70
2023-09-27T07:51:33.549Z,40.97
2023-09-27T07:54:00.994Z,43.10
2023-09-27T07:56:28.167Z,39.00
2023-09-27T07:58:56.003Z,36.28
2023-09-27T08:01:25.080Z,36.95
2023-09-27T08:03:53.500Z,33.38
2023-09-27T08:06:21.299Z,30.42
2023-09-27T08:08:49.090Z,40.25
2023-09-27T08:11:17.129Z,33.85
2023-09-27T08:13:44.258Z,31.25
2023-09-27T08:16:11.296Z,31.95
2023-09-27T08:18:44.034Z,35.38
2023-09-27T08:21:11.514Z,32.17
2023-09-27T08:23:39.082Z,33.40
2023-09-27T08:26:06.105Z,35.17
2023-09-27T08:28:33.140Z,37.45
2023-09-27T08:31:01.085Z,33.80
2023-09-27T08:33:28.894Z,34.92
2023-09-27T08:36:00.162Z,34.83
2023-09-27T08:38:27.936Z,31.58
2023-09-27T08:40:55.160Z,29.50
2023-09-27T08:43:24.174Z,34.30
2023-09-27T08:45:52.724Z,30.80
2023-09-27T08:48:23.673Z,32.33
2023-09-27T08:50:52.166Z,34.58
2023-09-27T08:53:19.288Z,32.05
2023-09-27T08:55:54.014Z,34.85
2023-09-27T08:58:25.998Z,33.95
2023-09-27T09:00:54.052Z,26.63
2023-09-27T09:03:21.167Z,30.50
2023-09-27T09:05:50.396Z,30.08
2023-09-27T09:08:21.134Z,28.25
2023-09-27T09:10:55.046Z,28.00
2023-09-27T09:13:24.177Z,24.30
2023-09-27T09:15:52.358Z,32.70
2023-09-27T09:18:30.598Z,27.73
2023-09-27T09:21:09.706Z,34.08
2023-09-27T09:23:38.875Z,31.88
2023-09-27T09:26:08.815Z,27.83
2023-09-27T09:28:37.625Z,32.97
2023-09-27T09:31:04.711Z,34.13
2023-09-27T09:33:37.989Z,31.02
2023-09-27T09:36:05.389Z,34.08
2023-09-27T09:38:33.142Z,34.78
2023-09-27T09:41:02.965Z,30.25
2023-09-27T09:43:38.388Z,30.67
2023-09-27T09:46:08.236Z,32.25
2023-09-27T09:48:36.584Z,27.33
2023-09-27T09:51:07.379Z,28.35
2023-09-27T09:53:40.939Z,23.33
2023-09-27T09:56:30.062Z,23.73
2023-09-27T09:59:04.511Z,26.63
2023-09-27T10:01:38.838Z,22.10
2023-09-27T10:04:07.074Z,25.83
2023-09-27T10:06:48.876Z,24.90
2023-09-27T10:09:17.533Z,22.52
2023-09-27T10:11:46.532Z,20.92
2023-09-27T10:14:15.760Z,22.52
2023-09-27T10:16:42.931Z,21.55
2023-09-27T10:19:09.930Z,25.90
2023-09-27T10:22:02.231Z,23.02
2023-09-27T10:24:29.624Z,22.70
2023-09-27T10:26:56.630Z,29.33
2023-09-27T10:29:23.886Z,22.15
2023-09-27T10:32:01.633Z,21.90
2023-09-27T10:34:34.779Z,22.90
2023-09-27T10:37:15.568Z,19.30
2023-09-27T10:40:20.626Z,18.30
2023-09-27T10:42:48.625Z,24.48
2023-09-27T10:45:17.553Z,21.23
2023-09-27T10:47:45.098Z,22.38
2023-09-27T10:50:12.358Z,23.38
2023-09-27T10:52:40.679Z,22.60
2023-09-27T10:55:14.406Z,20.25
2023-09-27T10:57:42.680Z,19.90
2023-09-27T11:00:13.222Z,23.55
2023-09-27T11:02:40.734Z,16.80
2023-09-27T11:05:09.364Z,16.35
2023-09-27T11:07:47.969Z,15.93
2023-09-27T11:10:38.765Z,15.10
2023-09-27T11:13:14.249Z,13.57
2023-09-27T11:15:42.726Z,16.02
2023-09-27T11:18:11.319Z,15.80
2023-09-27T11:20:40.804Z,14.73
2023-09-27T11:23:08.375Z,13.02
2023-09-27T11:25:37.697Z,14.50
2023-09-27T11:28:05.311Z,14.00
2023-09-27T11:30:36.460Z,14.60
2023-09-27T11:33:07.576Z,13.75
2023-09-27T11:35:35.422Z,15.43
2023-09-27T11:38:13.501Z,14.15
2023-09-27T11:40:43.726Z,12.52
2023-09-27T11:43:12.399Z,13.35
2023-09-27T11:45:50.457Z,11.73
2023-09-27T11:48:32.389Z,11.20
2023-09-27T11:51:03.340Z,12.10
2023-09-27T11:53:31.478Z,9.77
2023-09-27T11:56:00.496Z,11.23
2023-09-27T11:58:28.038Z,10.65
2023-09-27T12:00:55.015Z,14.02
2023-09-27T12:03:22.291Z,12.38
2023-09-27T12:05:49.796Z,7.55
2023-09-27T12:08:17.082Z,8.57
2023-09-27T12:10:44.009Z,10.35
2023-09-27T12:13:11.184Z,19.30
2023-09-27T12:15:38.168Z,13.48
2023-09-27T12:18:05.648Z,8.35
2023-09-27T12:23:02.613Z,8.45
2023-09-27T12:25:29.482Z,9.40
2023-09-27T12:27:56.408Z,9.52
2023-09-27T12:30:23.383Z,10.27
2023-09-27T12:32:52.384Z,9.07
2023-09-27T12:35:21.346Z,13.73
2023-09-27T12:37:49.142Z,9.65
2023-09-27T12:40:16.408Z,8.55
2023-09-27T12:42:43.435Z,9.15
2023-09-27T12:45:10.804Z,13.27
2023-09-27T12:47:37.859Z,9.85
2023-09-27T12:50:06.122Z,8.93
2023-09-27T12:52:33.424Z,11.57
2023-09-27T12:55:00.405Z,7.40
2023-09-27T12:57:27.443Z,11.05
2023-09-27T12:59:54.377Z,9.65
2023-09-27T13:02:21.748Z,10.95
2023-09-27T13:04:48.822Z,11.18
2023-09-27T13:07:17.778Z,10.23
2023-09-27T13:09:45.569Z,8.48
2023-09-27T13:12:12.606Z,11.05
2023-09-27T13:14:39.588Z,9.27
2023-09-27T13:17:06.479Z,9.93
2023-09-27T13:19:33.471Z,10.75
2023-09-27T13:22:00.421Z,9.10
2023-09-27T13:24:27.510Z,12.30
2023-09-27T13:26:54.461Z,10.75
2023-09-27T13:29:21.418Z,9.77
2023-09-27T13:31:48.378Z,10.57
2023-09-27T13:34:17.015Z,8.27
2023-09-27T13:36:44.263Z,9.02
2023-09-27T13:39:17.763Z,7.90
2023-09-27T13:41:46.270Z,10.98
2023-09-27T13:44:14.168Z,12.50
2023-09-27T13:46:42.184Z,11.68
2023-09-27T13:49:09.813Z,14.63
2023-09-27T13:51:38.468Z,9.43
2023-09-27T13:54:08.288Z,14.23
2023-09-27T13:56:36.507Z,10.93
2023-09-27T13:59:04.930Z,12.23
2023-09-27T14:01:32.025Z,15.23
2023-09-27T14:04:03.175Z,14.73
2023-09-27T14:06:36.248Z,10.07
2023-09-27T14:09:03.339Z,9.70
2023-09-27T14:11:30.643Z,13.18
2023-09-27T14:13:57.609Z,10.93
2023-09-27T14:16:24.606Z,8.82
2023-09-27T14:18:51.877Z,13.43
2023-09-27T14:21:19.001Z,12.25
2023-09-27T14:23:46.099Z,9.68
2023-09-27T14:26:13.173Z,8.52
2023-09-27T14:28:40.589Z,10.95
2023-09-27T14:31:07.590Z,13.68
2023-09-27T14:33:35.889Z,11.57
2023-09-27T14:36:06.576Z,12.27
2023-09-27T14:38:36.714Z,7.80
2023-09-27T14:41:10.593Z,8.98
2023-09-27T14:43:39.413Z,10.25
2023-09-27T14:46:11.876Z,7.82
2023-09-27T14:48:39.647Z,11.05
2023-09-27T14:51:10.648Z,8.35
2023-09-27T14:53:38.263Z,13.93
2023-09-27T14:56:13.777Z,10.38
2023-09-27T14:58:41.402Z,8.00
2023-09-27T15:01:09.050Z,7.60
2023-09-27T15:03:36.861Z,9.88
2023-09-27T15:06:04.946Z,10.93
2023-09-27T15:08:32.306Z,7.93
2023-09-27T15:10:59.653Z,13.77
2023-09-27T15:13:31.374Z,8.65
2023-09-27T15:15:58.817Z,8.85
2023-09-27T15:18:26.443Z,7.43
2023-09-27T15:20:54.813Z,14.50
2023-09-27T15:23:22.174Z,7.72
2023-09-27T15:25:50.097Z,6.72
2023-09-27T15:28:17.916Z,11.38
2023-09-27T15:30:45.067Z,8.75
2023-09-27T15:33:12.163Z,10.55
2023-09-27T15:35:39.591Z,8.15
2023-09-27T15:38:06.866Z,7.65
2023-09-27T15:40:34.484Z,8.13
2023-09-27T15:43:02.014Z,10.55
2023-09-27T15:45:30.637Z,8.85
2023-09-27T15:47:57.991Z,13.50
2023-09-27T15:50:25.228Z,10.35
2023-09-27T15:52:52.325Z,8.73
2023-09-27T15:55:20.589Z,9.45
2023-09-27T15:57:47.644Z,10.02
2023-09-27T16:00:15.273Z,11.10
2023-09-27T16:02:42.194Z,8.82
2023-09-27T16:05:11.956Z,11.13
2023-09-27T16:07:40.220Z,9.60
2023-09-27T16:10:10.094Z,10.35
2023-09-27T16:12:37.785Z,9.85
2023-09-27T16:15:07.765Z,8.20
2023-09-27T16:17:36.792Z,8.80
2023-09-27T16:20:05.920Z,8.88
2023-09-27T16:22:32.864Z,6.97
2023-09-27T16:25:00.546Z,7.57
2023-09-27T16:27:27.575Z,8.07
2023-09-27T16:29:55.464Z,11.20
2023-09-27T16:32:23.114Z,12.05
2023-09-27T16:34:50.242Z,8.82
2023-09-27T16:37:17.125Z,10.48
2023-09-27T16:39:44.087Z,12.88
2023-09-27T16:42:11.124Z,9.75
2023-09-27T16:44:38.070Z,8.13
2023-09-27T16:47:05.048Z,10.48
2023-09-27T16:49:32.133Z,7.47
2023-09-27T16:51:59.030Z,10.98
2023-09-27T16:54:25.996Z,10.45
2023-09-27T16:56:52.872Z,6.68
2023-09-27T16:59:20.583Z,8.90
2023-09-27T17:01:47.600Z,8.65
2023-09-27T17:04:14.702Z,7.82
2023-09-27T17:06:41.591Z,7.18
2023-09-27T17:09:08.517Z,13.27
2023-09-27T17:11:35.396Z,7.13
2023-09-27T17:14:02.432Z,12.73
2023-09-27T17:16:29.395Z,8.45
2023-09-27T17:18:57.948Z,11.68
2023-09-27T17:21:25.058Z,7.47
2023-09-27T17:23:52.512Z,8.55
2023-09-27T17:26:20.095Z,8.07
2023-09-27T17:28:47.331Z,8.63
2023-09-27T17:31:14.262Z,7.85
2023-09-27T17:33:42.751Z,10.55
2023-09-27T17:36:09.817Z,9.05
2023-09-27T17:38:36.775Z,12.35
2023-09-27T17:41:03.734Z,11.38
2023-09-27T17:43:30.811Z,12.90
2023-09-27T17:45:57.734Z,8.35
2023-09-27T17:48:24.830Z,12.43
2023-09-27T17:50:51.708Z,11.75
2023-09-27T17:53:18.794Z,9.63
2023-09-27T17:55:45.794Z,6.22
2023-09-27T17:58:12.801Z,10.65
2023-09-27T18:00:39.865Z,6.45
2023-09-27T18:03:06.852Z,10.30
2023-09-27T18:05:34.455Z,7.70
2023-09-27T18:08:01.526Z,7.07
2023-09-27T18:10:30.397Z,7.95
2023-09-27T18:12:57.396Z,10.02
2023-09-27T18:15:28.256Z,13.70
2023-09-27T18:17:56.344Z,8.77
2023-09-27T18:20:23.657Z,10.23
2023-09-27T18:22:50.853Z,7.65
2023-09-27T18:25:17.824Z,10.55
2023-09-27T18:27:44.980Z,7.53
2023-09-27T18:30:12.307Z,13.45
2023-09-27T18:32:39.357Z,9.90
2023-09-27T18:35:06.725Z,9.50
2023-09-27T18:37:34.703Z,6.53
2023-09-27T18:40:01.945Z,13.25
2023-09-27T18:42:29.260Z,9.70
2023-09-27T18:44:56.149Z,10.07
2023-09-27T18:47:23.264Z,6.70
2023-09-27T18:49:50.244Z,7.65
2023-09-27T18:52:17.202Z,9.32
2023-09-27T18:54:44.270Z,8.15
2023-09-27T18:57:11.350Z,7.53
2023-09-27T18:59:38.172Z,9.20
2023-09-27T19:02:05.208Z,6.35
2023-09-27T19:04:32.270Z,7.32
2023-09-27T19:06:59.339Z,7.13
2023-09-27T19:09:26.279Z,8.85
2023-09-27T19:11:54.395Z,7.78
2023-09-27T19:14:21.380Z,8.68
2023-09-27T19:16:48.540Z,8.90
2023-09-27T19:19:15.652Z,7.40
2023-09-27T19:21:43.528Z,5.72
2023-09-27T19:24:11.078Z,8.15
2023-09-27T19:26:39.894Z,10.20
2023-09-27T19:29:07.210Z,6.40
2023-09-27T19:31:34.631Z,7.97
2023-09-27T19:34:02.613Z,6.55
2023-09-27T19:36:30.071Z,7.35
2023-09-27T19:38:57.009Z,5.90
2023-09-27T19:41:31.114Z,6.68
2023-09-27T19:43:58.112Z,7.60
2023-09-27T19:46:26.545Z,6.15
2023-09-27T19:48:53.931Z,6.38
2023-09-27T19:51:26.497Z,7.10
2023-09-27T19:53:54.573Z,10.55
2023-09-27T19:56:22.589Z,7.20
2023-09-27T19:58:49.917Z,8.45
2023-09-27T20:01:35.708Z,6.43
2023-09-27T20:06:36.445Z,8.90
2023-09-27T20:09:10.197Z,8.75
2023-09-27T20:11:37.993Z,9.43
2023-09-27T20:14:05.487Z,9.48
2023-09-27T20:16:34.155Z,8.52
2023-09-27T20:19:01.315Z,7.68
2023-09-27T20:21:28.276Z,6.25
2023-09-27T20:23:55.902Z,8.05
2023-09-27T20:26:23.011Z,8.00
2023-09-27T20:28:49.932Z,6.85
2023-09-27T20:31:18.693Z,7.30
2023-09-27T20:33:45.785Z,12.23
2023-09-27T20:36:13.761Z,6.18
2023-09-27T20:38:41.514Z,8.70
2023-09-27T20:41:11.975Z,7.47
2023-09-27T20:43:39.659Z,13.05
2023-09-27T20:46:14.652Z,9.93
2023-09-27T20:48:41.841Z,7.40
2023-09-27T20:51:09.881Z,7.60
2023-09-27T20:53:36.898Z,7.15
2023-09-27T20:56:07.888Z,9.75
2023-09-27T20:58:35.393Z,8.70
2023-09-27T21:01:07.861Z,6.05
2023-09-27T21:03:35.217Z,8.30
2023-09-27T21:06:02.285Z,8.77
2023-09-27T21:08:29.260Z,8.88
2023-09-27T21:10:56.194Z,7.65
2023-09-27T21:13:23.139Z,10.63
2023-09-27T21:15:50.152Z,6.72
2023-09-27T21:18:17.087Z,7.68
2023-09-27T21:20:44.037Z,7.10
2023-09-27T21:23:11.051Z,10.25
2023-09-27T21:25:38.095Z,9.77
2023-09-27T21:28:08.146Z,5.95
2023-09-27T21:30:35.152Z,8.50
2023-09-27T21:33:02.169Z,7.85
2023-09-27T21:35:29.187Z,8.70
2023-09-27T21:37:56.149Z,9.20
2023-09-27T21:40:25.145Z,6.97
2023-09-27T21:42:53.131Z,8.52
2023-09-27T21:45:20.079Z,7.18
2023-09-27T21:47:46.986Z,8.73
2023-09-27T21:50:14.408Z,12.10
2023-09-27T21:52:41.470Z,5.47
2023-09-27T21:55:09.697Z,7.75
2023-09-27T21:57:38.562Z,7.78
2023-09-27T22:00:06.270Z,10.40
2023-09-27T22:02:38.940Z,7.97
2023-09-27T22:05:06.546Z,6.43
2023-09-27T22:07:34.084Z,7.38
2023-09-27T22:10:01.023Z,7.50
2023-09-27T22:12:29.289Z,7.20
2023-09-27T22:14:57.728Z,7.15
2023-09-27T22:17:24.819Z,8.18
2023-09-27T22:19:52.077Z,8.38
2023-09-27T22:22:21.974Z,7.05
2023-09-27T22:24:48.987Z,8.55
2023-09-27T22:27:17.168Z,9.80
2023-09-27T22:29:44.924Z,9.50
2023-09-27T22:32:12.820Z,6.45
2023-09-27T22:34:40.193Z,7.88
2023-09-27T22:37:09.015Z,7.22
2023-09-27T22:39:41.076Z,8.38
2023-09-27T22:42:13.902Z,15.80
2023-09-27T22:44:42.551Z,14.40
2023-09-27T22:47:10.808Z,10.63
2023-09-27T22:49:38.224Z,10.30
2023-09-27T22:52:10.130Z,7.90
2023-09-27T22:54:39.467Z,8.82
2023-09-27T22:57:06.603Z,9.40
2023-09-27T22:59:33.563Z,8.82
2023-09-27T23:02:09.098Z,9.18
2023-09-27T23:04:36.316Z,11.48
2023-09-27T23:07:03.309Z,7.57
2023-09-27T23:09:36.822Z,9.63
2023-09-27T23:12:21.518Z,8.55
2023-09-27T23:15:21.087Z,12.00
2023-09-27T23:18:01.265Z,8.07
2023-09-27T23:20:31.466Z,10.95
2023-09-27T23:22:59.634Z,9.18
2023-09-27T23:25:44.822Z,8.50
2023-09-27T23:28:38.900Z,9.43
2023-09-27T23:31:10.485Z,6.80
2023-09-27T23:33:44.782Z,7.10
2023-09-27T23:36:26.870Z,8.50
2023-09-27T23:38:57.654Z,9.82
2023-09-27T23:41:32.235Z,7.70
2023-09-27T23:44:09.782Z,8.48
2023-09-27T23:46:38.635Z,11.02
2023-09-27T23:49:06.616Z,9.68
2023-09-27T23:51:34.196Z,12.80
2023-09-27T23:54:03.718Z,17.10
2023-09-27T23:56:31.237Z,13.25
2023-09-27T23:59:08.947Z,17.13
